sensor_id;sensor_type;location;lat;lon;timestamp;P1;durP1;ratioP1;P2;durP2;ratioP2
42094;SDS011;27753;55.724;37.612;2022-07-29T00:02:28;4.95;;;2.08;;
42094;SDS011;27753;55.724;37.612;2022-07-29T00:04:54;3.55;;;1.90;;
42094;SDS011;27753;55.724;37.612;2022-07-29T00:07:20;4.45;;;1.73;;
42094;SDS011;27753;55.724;37.612;2022-07-29T00:09:46;3.95;;;1.77;;
42094;SDS011;27753;55.724;37.612;2022-07-29T00:12:12;5.20;;;1.95;;
42094;SDS011;27753;55.724;37.612;2022-07-29T00:14:38;3.38;;;1.80;;
42094;SDS011;27753;55.724;37.612;2022-07-29T00:17:04;6.15;;;1.65;;
42094;SDS011;27753;55.724;37.612;2022-07-29T00:19:29;3.35;;;2.20;;
42094;SDS011;27753;55.724;37.612;2022-07-29T00:21:55;5.57;;;2.15;;
42094;SDS011;27753;55.724;37.612;2022-07-29T00:24:21;4.75;;;1.63;;
42094;SDS011;27753;55.724;37.612;2022-07-29T00:26:47;3.78;;;2.00;;
42094;SDS011;27753;55.724;37.612;2022-07-29T00:29:14;2.13;;;1.90;;
42094;SDS011;27753;55.724;37.612;2022-07-29T00:31:40;4.68;;;1.70;;
42094;SDS011;27753;55.724;37.612;2022-07-29T00:34:05;5.75;;;1.90;;
42094;SDS011;27753;55.724;37.612;2022-07-29T00:36:51;4.30;;;2.17;;
42094;SDS011;27753;55.724;37.612;2022-07-29T00:39:17;4.15;;;1.90;;
42094;SDS011;27753;55.724;37.612;2022-07-29T00:41:43;3.35;;;1.85;;
42094;SDS011;27753;55.724;37.612;2022-07-29T00:44:08;2.95;;;2.40;;
42094;SDS011;27753;55.724;37.612;2022-07-29T00:46:34;7.05;;;2.88;;
42094;SDS011;27753;55.724;37.612;2022-07-29T00:49:00;2.92;;;2.20;;
42094;SDS011;27753;55.724;37.612;2022-07-29T00:51:26;3.42;;;1.73;;
42094;SDS011;27753;55.724;37.612;2022-07-29T00:53:52;5.18;;;2.50;;
42094;SDS011;27753;55.724;37.612;2022-07-29T00:56:18;4.93;;;2.03;;
42094;SDS011;27753;55.724;37.612;2022-07-29T00:58:45;5.50;;;1.95;;
42094;SDS011;27753;55.724;37.612;2022-07-29T01:01:12;4.00;;;2.03;;
42094;SDS011;27753;55.724;37.612;2022-07-29T01:03:38;3.38;;;2.25;;
42094;SDS011;27753;55.724;37.612;2022-07-29T01:06:03;6.40;;;2.67;;
42094;SDS011;27753;55.724;37.612;2022-07-29T01:08:30;5.68;;;2.10;;
42094;SDS011;27753;55.724;37.612;2022-07-29T01:10:58;3.25;;;2.13;;
42094;SDS011;27753;55.724;37.612;2022-07-29T01:13:25;2.10;;;1.50;;
42094;SDS011;27753;55.724;37.612;2022-07-29T01:15:55;5.03;;;2.03;;
42094;SDS011;27753;55.724;37.612;2022-07-29T01:18:30;4.45;;;2.30;;
42094;SDS011;27753;55.724;37.612;2022-07-29T01:26:45;4.45;;;2.20;;
42094;SDS011;27753;55.724;37.612;2022-07-29T01:29:32;3.78;;;2.08;;
42094;SDS011;27753;55.724;37.612;2022-07-29T01:32:07;6.22;;;1.90;;
42094;SDS011;27753;55.724;37.612;2022-07-29T01:37:11;2.85;;;1.88;;
42094;SDS011;27753;55.724;37.612;2022-07-29T01:39:47;4.53;;;2.22;;
42094;SDS011;27753;55.724;37.612;2022-07-29T01:45:20;3.53;;;2.08;;
42094;SDS011;27753;55.724;37.612;2022-07-29T01:47:57;5.70;;;2.42;;
42094;SDS011;27753;55.724;37.612;2022-07-29T01:50:41;7.75;;;2.80;;
42094;SDS011;27753;55.724;37.612;2022-07-29T01:53:35;4.47;;;2.55;;
42094;SDS011;27753;55.724;37.612;2022-07-29T01:56:09;5.22;;;2.40;;
42094;SDS011;27753;55.724;37.612;2022-07-29T01:58:37;4.93;;;2.03;;
42094;SDS011;27753;55.724;37.612;2022-07-29T02:01:06;3.25;;;2.20;;
42094;SDS011;27753;55.724;37.612;2022-07-29T02:03:36;5.00;;;1.73;;
42094;SDS011;27753;55.724;37.612;2022-07-29T02:06:04;9.05;;;2.58;;
42094;SDS011;27753;55.724;37.612;2022-07-29T02:08:32;6.55;;;2.58;;
42094;SDS011;27753;55.724;37.612;2022-07-29T02:10:59;5.32;;;2.47;;
42094;SDS011;27753;55.724;37.612;2022-07-29T02:13:26;2.92;;;1.90;;
42094;SDS011;27753;55.724;37.612;2022-07-29T02:15:53;5.22;;;2.45;;
42094;SDS011;27753;55.724;37.612;2022-07-29T02:18:24;3.80;;;2.28;;
42094;SDS011;27753;55.724;37.612;2022-07-29T02:20:53;8.43;;;2.63;;
42094;SDS011;27753;55.724;37.612;2022-07-29T02:23:22;5.00;;;4.00;;
42094;SDS011;27753;55.724;37.612;2022-07-29T02:25:49;7.15;;;2.30;;
42094;SDS011;27753;55.724;37.612;2022-07-29T02:28:17;5.70;;;2.70;;
42094;SDS011;27753;55.724;37.612;2022-07-29T02:30:45;6.70;;;2.65;;
42094;SDS011;27753;55.724;37.612;2022-07-29T02:33:13;7.72;;;2.55;;
42094;SDS011;27753;55.724;37.612;2022-07-29T02:35:40;2.88;;;2.28;;
42094;SDS011;27753;55.724;37.612;2022-07-29T02:38:10;4.38;;;2.40;;
42094;SDS011;27753;55.724;37.612;2022-07-29T02:40:57;6.05;;;3.38;;
42094;SDS011;27753;55.724;37.612;2022-07-29T02:43:26;5.15;;;3.38;;
42094;SDS011;27753;55.724;37.612;2022-07-29T02:45:53;7.53;;;2.83;;
42094;SDS011;27753;55.724;37.612;2022-07-29T02:48:22;4.60;;;2.42;;
42094;SDS011;27753;55.724;37.612;2022-07-29T02:50:59;5.18;;;2.75;;
42094;SDS011;27753;55.724;37.612;2022-07-29T02:53:31;6.78;;;2.25;;
42094;SDS011;27753;55.724;37.612;2022-07-29T02:56:00;4.78;;;2.42;;
42094;SDS011;27753;55.724;37.612;2022-07-29T02:58:36;5.97;;;2.58;;
42094;SDS011;27753;55.724;37.612;2022-07-29T03:01:14;4.03;;;2.33;;
42094;SDS011;27753;55.724;37.612;2022-07-29T03:03:42;4.85;;;2.50;;
42094;SDS011;27753;55.724;37.612;2022-07-29T03:06:10;4.07;;;2.70;;
42094;SDS011;27753;55.724;37.612;2022-07-29T03:08:39;4.95;;;2.60;;
42094;SDS011;27753;55.724;37.612;2022-07-29T03:11:07;4.10;;;2.47;;
42094;SDS011;27753;55.724;37.612;2022-07-29T03:13:34;4.20;;;2.33;;
42094;SDS011;27753;55.724;37.612;2022-07-29T03:16:00;3.63;;;2.05;;
42094;SDS011;27753;55.724;37.612;2022-07-29T03:18:27;10.13;;;3.08;;
42094;SDS011;27753;55.724;37.612;2022-07-29T03:20:53;2.40;;;2.20;;
42094;SDS011;27753;55.724;37.612;2022-07-29T03:23:20;8.32;;;2.60;;
42094;SDS011;27753;55.724;37.612;2022-07-29T03:25:51;8.55;;;2.55;;
42094;SDS011;27753;55.724;37.612;2022-07-29T03:28:17;6.80;;;1.95;;
42094;SDS011;27753;55.724;37.612;2022-07-29T03:30:43;4.40;;;2.47;;
42094;SDS011;27753;55.724;37.612;2022-07-29T03:33:09;3.72;;;2.20;;
42094;SDS011;27753;55.724;37.612;2022-07-29T03:35:35;5.45;;;2.28;;
42094;SDS011;27753;55.724;37.612;2022-07-29T03:38:01;3.60;;;2.35;;
42094;SDS011;27753;55.724;37.612;2022-07-29T03:40:31;5.57;;;2.30;;
42094;SDS011;27753;55.724;37.612;2022-07-29T03:43:03;5.38;;;2.17;;
42094;SDS011;27753;55.724;37.612;2022-07-29T03:45:31;3.28;;;2.30;;
42094;SDS011;27753;55.724;37.612;2022-07-29T03:48:02;5.15;;;2.25;;
42094;SDS011;27753;55.724;37.612;2022-07-29T03:50:33;5.97;;;2.20;;
42094;SDS011;27753;55.724;37.612;2022-07-29T03:53:00;7.55;;;2.42;;
42094;SDS011;27753;55.724;37.612;2022-07-29T03:55:28;4.00;;;2.22;;
42094;SDS011;27753;55.724;37.612;2022-07-29T03:57:57;3.35;;;1.88;;
42094;SDS011;27753;55.724;37.612;2022-07-29T04:00:25;2.78;;;1.92;;
42094;SDS011;27753;55.724;37.612;2022-07-29T04:02:52;4.13;;;2.20;;
42094;SDS011;27753;55.724;37.612;2022-07-29T04:05:18;8.85;;;2.33;;
42094;SDS011;27753;55.724;37.612;2022-07-29T04:07:44;5.55;;;2.33;;
42094;SDS011;27753;55.724;37.612;2022-07-29T04:10:11;4.00;;;2.08;;
42094;SDS011;27753;55.724;37.612;2022-07-29T04:12:38;6.25;;;2.38;;
42094;SDS011;27753;55.724;37.612;2022-07-29T04:15:04;6.22;;;2.22;;
42094;SDS011;27753;55.724;37.612;2022-07-29T04:17:30;4.70;;;2.15;;
42094;SDS011;27753;55.724;37.612;2022-07-29T04:19:55;5.97;;;2.75;;
42094;SDS011;27753;55.724;37.612;2022-07-29T04:22:21;5.30;;;2.30;;
42094;SDS011;27753;55.724;37.612;2022-07-29T04:24:47;4.80;;;2.45;;
42094;SDS011;27753;55.724;37.612;2022-07-29T04:27:13;5.43;;;2.25;;
42094;SDS011;27753;55.724;37.612;2022-07-29T04:29:38;8.60;;;3.08;;
42094;SDS011;27753;55.724;37.612;2022-07-29T04:32:04;8.00;;;2.47;;
42094;SDS011;27753;55.724;37.612;2022-07-29T04:34:30;3.72;;;1.83;;
42094;SDS011;27753;55.724;37.612;2022-07-29T04:36:56;4.85;;;1.98;;
42094;SDS011;27753;55.724;37.612;2022-07-29T04:39:22;5.30;;;2.25;;
42094;SDS011;27753;55.724;37.612;2022-07-29T04:41:49;4.35;;;2.17;;
42094;SDS011;27753;55.724;37.612;2022-07-29T04:44:15;5.60;;;2.10;;
42094;SDS011;27753;55.724;37.612;2022-07-29T04:46:41;4.05;;;2.17;;
42094;SDS011;27753;55.724;37.612;2022-07-29T04:49:07;7.05;;;2.75;;
42094;SDS011;27753;55.724;37.612;2022-07-29T04:51:33;7.82;;;2.65;;
42094;SDS011;27753;55.724;37.612;2022-07-29T04:53:59;4.68;;;2.05;;
42094;SDS011;27753;55.724;37.612;2022-07-29T04:56:25;6.32;;;2.00;;
42094;SDS011;27753;55.724;37.612;2022-07-29T04:58:51;9.00;;;1.75;;
42094;SDS011;27753;55.724;37.612;2022-07-29T05:01:16;4.38;;;1.83;;
42094;SDS011;27753;55.724;37.612;2022-07-29T05:03:42;3.42;;;1.80;;
42094;SDS011;27753;55.724;37.612;2022-07-29T05:06:08;4.22;;;2.20;;
42094;SDS011;27753;55.724;37.612;2022-07-29T05:08:34;4.50;;;2.03;;
42094;SDS011;27753;55.724;37.612;2022-07-29T05:11:00;5.65;;;2.22;;
42094;SDS011;27753;55.724;37.612;2022-07-29T05:13:26;3.70;;;2.10;;
42094;SDS011;27753;55.724;37.612;2022-07-29T05:15:52;4.82;;;2.50;;
42094;SDS011;27753;55.724;37.612;2022-07-29T05:18:18;6.18;;;1.88;;
42094;SDS011;27753;55.724;37.612;2022-07-29T05:20:43;6.20;;;2.40;;
42094;SDS011;27753;55.724;37.612;2022-07-29T05:23:09;5.88;;;1.95;;
42094;SDS011;27753;55.724;37.612;2022-07-29T05:25:37;4.82;;;1.75;;
42094;SDS011;27753;55.724;37.612;2022-07-29T05:28:04;6.00;;;2.43;;
42094;SDS011;27753;55.724;37.612;2022-07-29T05:30:30;3.60;;;1.95;;
42094;SDS011;27753;55.724;37.612;2022-07-29T05:32:55;5.20;;;2.33;;
42094;SDS011;27753;55.724;37.612;2022-07-29T05:37:54;5.90;;;2.15;;
42094;SDS011;27753;55.724;37.612;2022-07-29T05:40:20;5.50;;;1.95;;
42094;SDS011;27753;55.724;37.612;2022-07-29T05:42:46;4.07;;;2.63;;
42094;SDS011;27753;55.724;37.612;2022-07-29T05:45:12;5.28;;;2.30;;
42094;SDS011;27753;55.724;37.612;2022-07-29T05:47:38;2.78;;;1.60;;
42094;SDS011;27753;55.724;37.612;2022-07-29T05:50:03;4.53;;;1.67;;
42094;SDS011;27753;55.724;37.612;2022-07-29T05:52:30;3.60;;;1.90;;
42094;SDS011;27753;55.724;37.612;2022-07-29T05:54:55;6.03;;;2.10;;
42094;SDS011;27753;55.724;37.612;2022-07-29T05:57:22;6.40;;;1.73;;
42094;SDS011;27753;55.724;37.612;2022-07-29T05:59:49;5.68;;;2.67;;
42094;SDS011;27753;55.724;37.612;2022-07-29T06:02:15;5.25;;;1.80;;
42094;SDS011;27753;55.724;37.612;2022-07-29T06:04:42;5.80;;;2.43;;
42094;SDS011;27753;55.724;37.612;2022-07-29T06:07:08;5.70;;;2.17;;
42094;SDS011;27753;55.724;37.612;2022-07-29T06:09:34;5.88;;;2.10;;
42094;SDS011;27753;55.724;37.612;2022-07-29T06:12:00;3.35;;;2.13;;
42094;SDS011;27753;55.724;37.612;2022-07-29T06:14:26;3.30;;;1.67;;
42094;SDS011;27753;55.724;37.612;2022-07-29T06:16:53;8.07;;;2.40;;
42094;SDS011;27753;55.724;37.612;2022-07-29T06:19:19;4.95;;;1.65;;
42094;SDS011;27753;55.724;37.612;2022-07-29T06:21:45;6.57;;;1.30;;
42094;SDS011;27753;55.724;37.612;2022-07-29T06:24:12;7.18;;;2.08;;
42094;SDS011;27753;55.724;37.612;2022-07-29T06:26:39;3.22;;;1.42;;
42094;SDS011;27753;55.724;37.612;2022-07-29T06:29:06;5.82;;;1.75;;
42094;SDS011;27753;55.724;37.612;2022-07-29T06:31:33;4.13;;;1.35;;
42094;SDS011;27753;55.724;37.612;2022-07-29T06:33:58;4.77;;;1.60;;
42094;SDS011;27753;55.724;37.612;2022-07-29T06:36:24;2.57;;;1.80;;
42094;SDS011;27753;55.724;37.612;2022-07-29T06:38:50;5.90;;;1.90;;
42094;SDS011;27753;55.724;37.612;2022-07-29T06:41:16;5.00;;;1.57;;
42094;SDS011;27753;55.724;37.612;2022-07-29T06:43:44;4.23;;;1.93;;
42094;SDS011;27753;55.724;37.612;2022-07-29T06:46:11;3.88;;;2.03;;
42094;SDS011;27753;55.724;37.612;2022-07-29T06:48:45;5.00;;;1.50;;
42094;SDS011;27753;55.724;37.612;2022-07-29T06:51:15;3.47;;;1.73;;
42094;SDS011;27753;55.724;37.612;2022-07-29T06:53:41;4.00;;;1.80;;
42094;SDS011;27753;55.724;37.612;2022-07-29T06:56:07;5.05;;;1.50;;
42094;SDS011;27753;55.724;37.612;2022-07-29T06:58:34;2.00;;;1.45;;
42094;SDS011;27753;55.724;37.612;2022-07-29T07:01:01;5.30;;;1.77;;
42094;SDS011;27753;55.724;37.612;2022-07-29T07:03:28;2.97;;;1.63;;
42094;SDS011;27753;55.724;37.612;2022-07-29T07:05:54;6.70;;;2.20;;
42094;SDS011;27753;55.724;37.612;2022-07-29T07:08:21;5.30;;;1.88;;
42094;SDS011;27753;55.724;37.612;2022-07-29T07:10:47;4.30;;;1.40;;
42094;SDS011;27753;55.724;37.612;2022-07-29T07:13:14;3.33;;;1.33;;
42094;SDS011;27753;55.724;37.612;2022-07-29T07:15:42;4.55;;;1.13;;
42094;SDS011;27753;55.724;37.612;2022-07-29T07:23:00;5.63;;;1.40;;
42094;SDS011;27753;55.724;37.612;2022-07-29T07:25:26;9.53;;;1.60;;
42094;SDS011;27753;55.724;37.612;2022-07-29T07:27:52;3.83;;;1.33;;
42094;SDS011;27753;55.724;37.612;2022-07-29T07:30:18;4.03;;;1.37;;
42094;SDS011;27753;55.724;37.612;2022-07-29T07:32:43;3.07;;;1.50;;
42094;SDS011;27753;55.724;37.612;2022-07-29T07:35:10;4.60;;;1.23;;
42094;SDS011;27753;55.724;37.612;2022-07-29T07:37:36;3.70;;;1.40;;
42094;SDS011;27753;55.724;37.612;2022-07-29T07:40:03;3.03;;;1.67;;
42094;SDS011;27753;55.724;37.612;2022-07-29T07:47:21;4.55;;;1.40;;
42094;SDS011;27753;55.724;37.612;2022-07-29T07:49:50;3.95;;;1.08;;
42094;SDS011;27753;55.724;37.612;2022-07-29T07:52:17;1.67;;;1.30;;
42094;SDS011;27753;55.724;37.612;2022-07-29T07:54:44;2.65;;;1.00;;
42094;SDS011;27753;55.724;37.612;2022-07-29T07:57:11;4.05;;;1.30;;
42094;SDS011;27753;55.724;37.612;2022-07-29T07:59:37;6.63;;;4.57;;
42094;SDS011;27753;55.724;37.612;2022-07-29T08:02:03;2.72;;;1.30;;
42094;SDS011;27753;55.724;37.612;2022-07-29T08:04:29;2.75;;;1.38;;
42094;SDS011;27753;55.724;37.612;2022-07-29T08:06:55;3.30;;;1.20;;
42094;SDS011;27753;55.724;37.612;2022-07-29T08:09:22;3.33;;;1.40;;
42094;SDS011;27753;55.724;37.612;2022-07-29T08:11:48;1.50;;;1.10;;
42094;SDS011;27753;55.724;37.612;2022-07-29T08:14:14;3.07;;;1.30;;
42094;SDS011;27753;55.724;37.612;2022-07-29T08:16:40;5.43;;;1.33;;
42094;SDS011;27753;55.724;37.612;2022-07-29T08:19:07;4.53;;;1.52;;
42094;SDS011;27753;55.724;37.612;2022-07-29T08:21:34;3.40;;;1.70;;
42094;SDS011;27753;55.724;37.612;2022-07-29T08:24:00;4.05;;;1.85;;
42094;SDS011;27753;55.724;37.612;2022-07-29T08:26:44;3.60;;;1.20;;
42094;SDS011;27753;55.724;37.612;2022-07-29T08:29:10;2.53;;;1.40;;
42094;SDS011;27753;55.724;37.612;2022-07-29T08:31:37;4.10;;;1.30;;
42094;SDS011;27753;55.724;37.612;2022-07-29T08:36:30;4.30;;;0.98;;
42094;SDS011;27753;55.724;37.612;2022-07-29T08:38:56;2.20;;;1.10;;
42094;SDS011;27753;55.724;37.612;2022-07-29T08:41:22;3.15;;;0.70;;
42094;SDS011;27753;55.724;37.612;2022-07-29T08:43:49;1.65;;;0.90;;
42094;SDS011;27753;55.724;37.612;2022-07-29T08:46:16;2.47;;;1.08;;
42094;SDS011;27753;55.724;37.612;2022-07-29T08:48:42;5.13;;;1.33;;
42094;SDS011;27753;55.724;37.612;2022-07-29T08:51:08;4.90;;;1.00;;
42094;SDS011;27753;55.724;37.612;2022-07-29T08:53:40;4.65;;;1.00;;
42094;SDS011;27753;55.724;37.612;2022-07-29T08:56:11;1.88;;;1.02;;
42094;SDS011;27753;55.724;37.612;2022-07-29T08:58:38;4.53;;;0.93;;
42094;SDS011;27753;55.724;37.612;2022-07-29T09:01:05;1.38;;;0.90;;
42094;SDS011;27753;55.724;37.612;2022-07-29T09:03:32;1.73;;;0.90;;
42094;SDS011;27753;55.724;37.612;2022-07-29T09:06:00;3.58;;;1.02;;
42094;SDS011;27753;55.724;37.612;2022-07-29T09:08:27;5.60;;;1.10;;
42094;SDS011;27753;55.724;37.612;2022-07-29T09:10:54;4.03;;;1.35;;
42094;SDS011;27753;55.724;37.612;2022-07-29T09:13:23;1.75;;;0.80;;
42094;SDS011;27753;55.724;37.612;2022-07-29T09:15:49;2.75;;;0.70;;
42094;SDS011;27753;55.724;37.612;2022-07-29T09:21:03;3.90;;;1.60;;
42094;SDS011;27753;55.724;37.612;2022-07-29T09:26:36;3.30;;;1.50;;
42094;SDS011;27753;55.724;37.612;2022-07-29T09:29:12;3.75;;;1.10;;
42094;SDS011;27753;55.724;37.612;2022-07-29T09:31:43;3.72;;;1.33;;
42094;SDS011;27753;55.724;37.612;2022-07-29T09:34:14;5.20;;;1.83;;
42094;SDS011;27753;55.724;37.612;2022-07-29T09:36:42;3.08;;;1.45;;
42094;SDS011;27753;55.724;37.612;2022-07-29T09:39:09;8.95;;;2.35;;
42094;SDS011;27753;55.724;37.612;2022-07-29T09:44:15;2.47;;;1.30;;
42094;SDS011;27753;55.724;37.612;2022-07-29T09:47:02;5.07;;;1.23;;
42094;SDS011;27753;55.724;37.612;2022-07-29T09:49:34;3.65;;;1.27;;
42094;SDS011;27753;55.724;37.612;2022-07-29T09:52:14;2.63;;;1.45;;
42094;SDS011;27753;55.724;37.612;2022-07-29T09:54:40;4.57;;;1.15;;
42094;SDS011;27753;55.724;37.612;2022-07-29T09:57:07;2.93;;;1.00;;
42094;SDS011;27753;55.724;37.612;2022-07-29T09:59:37;1.88;;;1.00;;
42094;SDS011;27753;55.724;37.612;2022-07-29T10:04:42;4.72;;;1.05;;
42094;SDS011;27753;55.724;37.612;2022-07-29T10:07:08;1.13;;;1.00;;
42094;SDS011;27753;55.724;37.612;2022-07-29T10:09:34;1.95;;;0.80;;
42094;SDS011;27753;55.724;37.612;2022-07-29T10:14:32;2.75;;;1.40;;
42094;SDS011;27753;55.724;37.612;2022-07-29T10:16:59;5.57;;;1.48;;
42094;SDS011;27753;55.724;37.612;2022-07-29T10:19:26;4.90;;;1.30;;
42094;SDS011;27753;55.724;37.612;2022-07-29T10:21:54;2.58;;;1.15;;
42094;SDS011;27753;55.724;37.612;2022-07-29T10:24:22;4.25;;;1.35;;
42094;SDS011;27753;55.724;37.612;2022-07-29T10:26:51;1.33;;;1.02;;
42094;SDS011;27753;55.724;37.612;2022-07-29T10:29:18;1.90;;;0.95;;
42094;SDS011;27753;55.724;37.612;2022-07-29T10:31:56;1.38;;;1.10;;
42094;SDS011;27753;55.724;37.612;2022-07-29T10:40:26;3.45;;;1.05;;
42094;SDS011;27753;55.724;37.612;2022-07-29T10:43:21;3.88;;;1.02;;
42094;SDS011;27753;55.724;37.612;2022-07-29T10:45:56;2.83;;;0.90;;
42094;SDS011;27753;55.724;37.612;2022-07-29T10:48:24;4.15;;;1.15;;
42094;SDS011;27753;55.724;37.612;2022-07-29T10:53:24;3.30;;;1.15;;
42094;SDS011;27753;55.724;37.612;2022-07-29T10:56:31;3.88;;;1.23;;
42094;SDS011;27753;55.724;37.612;2022-07-29T11:01:56;7.35;;;1.38;;
42094;SDS011;27753;55.724;37.612;2022-07-29T11:07:07;7.22;;;4.53;;
42094;SDS011;27753;55.724;37.612;2022-07-29T11:09:33;4.07;;;1.83;;
42094;SDS011;27753;55.724;37.612;2022-07-29T11:11:59;1.98;;;1.25;;
42094;SDS011;27753;55.724;37.612;2022-07-29T11:17:19;1.55;;;0.85;;
42094;SDS011;27753;55.724;37.612;2022-07-29T11:19:45;1.92;;;0.90;;
42094;SDS011;27753;55.724;37.612;2022-07-29T11:22:12;3.33;;;2.13;;
42094;SDS011;27753;55.724;37.612;2022-07-29T11:25:13;3.05;;;1.55;;
42094;SDS011;27753;55.724;37.612;2022-07-29T11:27:40;2.25;;;1.52;;
42094;SDS011;27753;55.724;37.612;2022-07-29T11:30:06;1.70;;;1.27;;
42094;SDS011;27753;55.724;37.612;2022-07-29T11:32:38;3.47;;;0.80;;
42094;SDS011;27753;55.724;37.612;2022-07-29T11:35:13;2.70;;;0.80;;
42094;SDS011;27753;55.724;37.612;2022-07-29T11:37:39;2.40;;;1.00;;
42094;SDS011;27753;55.724;37.612;2022-07-29T11:45:15;1.52;;;1.00;;
42094;SDS011;27753;55.724;37.612;2022-07-29T11:47:50;2.63;;;1.10;;
42094;SDS011;27753;55.724;37.612;2022-07-29T11:50:30;1.80;;;1.02;;
42094;SDS011;27753;55.724;37.612;2022-07-29T11:53:11;2.13;;;1.20;;
42094;SDS011;27753;55.724;37.612;2022-07-29T11:55:39;2.53;;;1.05;;
42094;SDS011;27753;55.724;37.612;2022-07-29T11:58:08;4.30;;;1.60;;
42094;SDS011;27753;55.724;37.612;2022-07-29T12:00:36;2.15;;;1.35;;
42094;SDS011;27753;55.724;37.612;2022-07-29T12:03:05;3.72;;;1.20;;
42094;SDS011;27753;55.724;37.612;2022-07-29T12:05:35;5.32;;;1.70;;
42094;SDS011;27753;55.724;37.612;2022-07-29T12:10:32;4.55;;;2.58;;
42094;SDS011;27753;55.724;37.612;2022-07-29T12:12:58;2.75;;;0.90;;
42094;SDS011;27753;55.724;37.612;2022-07-29T12:15:24;6.28;;;1.33;;
42094;SDS011;27753;55.724;37.612;2022-07-29T12:17:51;4.43;;;1.10;;
42094;SDS011;27753;55.724;37.612;2022-07-29T12:20:24;2.70;;;1.20;;
42094;SDS011;27753;55.724;37.612;2022-07-29T12:22:55;1.95;;;1.13;;
42094;SDS011;27753;55.724;37.612;2022-07-29T12:25:24;1.52;;;1.13;;
42094;SDS011;27753;55.724;37.612;2022-07-29T12:28:02;1.85;;;1.10;;
42094;SDS011;27753;55.724;37.612;2022-07-29T12:30:39;2.70;;;1.00;;
42094;SDS011;27753;55.724;37.612;2022-07-29T12:35:45;1.88;;;1.00;;
42094;SDS011;27753;55.724;37.612;2022-07-29T12:38:13;3.67;;;0.90;;
42094;SDS011;27753;55.724;37.612;2022-07-29T12:40:40;1.77;;;1.00;;
42094;SDS011;27753;55.724;37.612;2022-07-29T12:45:38;3.00;;;1.27;;
42094;SDS011;27753;55.724;37.612;2022-07-29T12:48:06;4.55;;;1.63;;
42094;SDS011;27753;55.724;37.612;2022-07-29T12:50:34;2.67;;;0.82;;
42094;SDS011;27753;55.724;37.612;2022-07-29T12:53:08;2.28;;;1.10;;
42094;SDS011;27753;55.724;37.612;2022-07-29T12:55:41;3.90;;;0.90;;
42094;SDS011;27753;55.724;37.612;2022-07-29T12:58:09;3.75;;;1.88;;
42094;SDS011;27753;55.724;37.612;2022-07-29T13:00:35;1.48;;;0.85;;
42094;SDS011;27753;55.724;37.612;2022-07-29T13:03:00;2.88;;;1.40;;
42094;SDS011;27753;55.724;37.612;2022-07-29T13:05:43;2.80;;;1.33;;
42094;SDS011;27753;55.724;37.612;2022-07-29T13:08:12;3.05;;;0.90;;
42094;SDS011;27753;55.724;37.612;2022-07-29T13:10:38;4.78;;;1.13;;
42094;SDS011;27753;55.724;37.612;2022-07-29T13:13:05;3.45;;;1.33;;
42094;SDS011;27753;55.724;37.612;2022-07-29T13:15:34;3.22;;;1.15;;
42094;SDS011;27753;55.724;37.612;2022-07-29T13:18:04;3.78;;;1.05;;
42094;SDS011;27753;55.724;37.612;2022-07-29T13:20:50;4.70;;;1.30;;
42094;SDS011;27753;55.724;37.612;2022-07-29T13:23:17;5.30;;;1.05;;
42094;SDS011;27753;55.724;37.612;2022-07-29T13:25:42;3.28;;;1.05;;
42094;SDS011;27753;55.724;37.612;2022-07-29T13:28:08;5.55;;;1.42;;
42094;SDS011;27753;55.724;37.612;2022-07-29T13:30:34;2.00;;;1.40;;
42094;SDS011;27753;55.724;37.612;2022-07-29T13:33:00;2.30;;;1.58;;
42094;SDS011;27753;55.724;37.612;2022-07-29T13:35:35;1.45;;;0.85;;
42094;SDS011;27753;55.724;37.612;2022-07-29T13:38:01;2.70;;;1.02;;
42094;SDS011;27753;55.724;37.612;2022-07-29T13:40:26;2.95;;;0.90;;
42094;SDS011;27753;55.724;37.612;2022-07-29T13:45:19;2.55;;;1.30;;
42094;SDS011;27753;55.724;37.612;2022-07-29T13:47:45;2.10;;;1.13;;
42094;SDS011;27753;55.724;37.612;2022-07-29T13:50:11;4.97;;;1.85;;
42094;SDS011;27753;55.724;37.612;2022-07-29T13:52:37;4.90;;;1.80;;
42094;SDS011;27753;55.724;37.612;2022-07-29T13:55:03;3.17;;;1.30;;
42094;SDS011;27753;55.724;37.612;2022-07-29T13:57:29;5.37;;;2.80;;
42094;SDS011;27753;55.724;37.612;2022-07-29T13:59:55;3.75;;;1.67;;
42094;SDS011;27753;55.724;37.612;2022-07-29T14:02:21;3.73;;;1.47;;
42094;SDS011;27753;55.724;37.612;2022-07-29T14:04:47;7.93;;;2.47;;
42094;SDS011;27753;55.724;37.612;2022-07-29T14:07:13;6.30;;;2.15;;
42094;SDS011;27753;55.724;37.612;2022-07-29T14:09:39;3.58;;;2.80;;
42094;SDS011;27753;55.724;37.612;2022-07-29T14:12:05;4.30;;;2.30;;
42094;SDS011;27753;55.724;37.612;2022-07-29T14:14:31;4.93;;;2.47;;
42094;SDS011;27753;55.724;37.612;2022-07-29T14:16:57;3.50;;;1.73;;
42094;SDS011;27753;55.724;37.612;2022-07-29T14:19:24;2.58;;;1.48;;
42094;SDS011;27753;55.724;37.612;2022-07-29T14:21:50;6.23;;;3.83;;
42094;SDS011;27753;55.724;37.612;2022-07-29T14:24:16;4.20;;;1.90;;
42094;SDS011;27753;55.724;37.612;2022-07-29T14:26:41;7.20;;;1.90;;
42094;SDS011;27753;55.724;37.612;2022-07-29T14:29:07;6.50;;;1.77;;
42094;SDS011;27753;55.724;37.612;2022-07-29T14:31:33;4.28;;;1.90;;
42094;SDS011;27753;55.724;37.612;2022-07-29T14:33:59;2.83;;;1.33;;
42094;SDS011;27753;55.724;37.612;2022-07-29T14:36:25;2.63;;;1.00;;
42094;SDS011;27753;55.724;37.612;2022-07-29T14:38:52;3.65;;;1.30;;
42094;SDS011;27753;55.724;37.612;2022-07-29T14:41:18;6.50;;;1.63;;
42094;SDS011;27753;55.724;37.612;2022-07-29T14:43:44;4.82;;;2.15;;
42094;SDS011;27753;55.724;37.612;2022-07-29T14:46:09;3.17;;;1.27;;
42094;SDS011;27753;55.724;37.612;2022-07-29T14:48:35;6.03;;;2.00;;
42094;SDS011;27753;55.724;37.612;2022-07-29T14:51:01;3.90;;;1.52;;
42094;SDS011;27753;55.724;37.612;2022-07-29T14:53:27;3.00;;;1.48;;
42094;SDS011;27753;55.724;37.612;2022-07-29T14:55:52;2.53;;;1.30;;
42094;SDS011;27753;55.724;37.612;2022-07-29T14:58:18;5.13;;;1.63;;
42094;SDS011;27753;55.724;37.612;2022-07-29T15:00:46;7.15;;;1.52;;
42094;SDS011;27753;55.724;37.612;2022-07-29T15:03:12;1.60;;;1.20;;
42094;SDS011;27753;55.724;37.612;2022-07-29T15:05:38;4.45;;;1.52;;
42094;SDS011;27753;55.724;37.612;2022-07-29T15:08:04;3.72;;;1.38;;
42094;SDS011;27753;55.724;37.612;2022-07-29T15:10:29;3.20;;;1.42;;
42094;SDS011;27753;55.724;37.612;2022-07-29T15:12:57;4.90;;;2.00;;
42094;SDS011;27753;55.724;37.612;2022-07-29T15:15:23;6.43;;;1.88;;
42094;SDS011;27753;55.724;37.612;2022-07-29T15:17:49;2.75;;;1.80;;
42094;SDS011;27753;55.724;37.612;2022-07-29T15:20:15;6.53;;;1.63;;
42094;SDS011;27753;55.724;37.612;2022-07-29T15:22:41;5.30;;;2.03;;
42094;SDS011;27753;55.724;37.612;2022-07-29T15:25:07;3.28;;;2.25;;
42094;SDS011;27753;55.724;37.612;2022-07-29T15:27:34;3.88;;;2.20;;
42094;SDS011;27753;55.724;37.612;2022-07-29T15:30:00;7.50;;;2.25;;
42094;SDS011;27753;55.724;37.612;2022-07-29T15:32:26;6.28;;;2.08;;
42094;SDS011;27753;55.724;37.612;2022-07-29T15:34:51;2.90;;;2.33;;
42094;SDS011;27753;55.724;37.612;2022-07-29T15:37:17;5.05;;;2.05;;
42094;SDS011;27753;55.724;37.612;2022-07-29T15:39:43;3.33;;;1.90;;
42094;SDS011;27753;55.724;37.612;2022-07-29T15:42:09;4.20;;;2.00;;
42094;SDS011;27753;55.724;37.612;2022-07-29T15:44:34;5.95;;;1.98;;
42094;SDS011;27753;55.724;37.612;2022-07-29T15:47:00;8.15;;;2.13;;
42094;SDS011;27753;55.724;37.612;2022-07-29T15:49:32;4.10;;;2.20;;
42094;SDS011;27753;55.724;37.612;2022-07-29T15:52:01;3.60;;;2.25;;